^^
Station Historical Data
Daily Summary for January 12, 2018 Units:  English    Metric   Both
« Previous Day
Next Day »
Daily Weekly Monthly Yearly Custom
  High: Low: Average:
Temperature: 19.3 °F 6.0 °F 12.3 °F
Dew Point: 9.4 °F 0.8 °F 4.6 °F
Humidity: 80% 60% 71%
Wind Speed: 13.8mph 0.0mph 7mph
Wind Gust: 13.8mph - -
Wind- - SSW
Pressure: 30.61 in 30.24 in -
Precipitation: 0.00 in    
Historical Graphs
 
 
Tabular Data for January 12, 2018
Time Temperature Dew Point Pressure Wind Wind Speed Wind Gust Humidity Rainfall Rate (Hourly)
00:03 11.8 °F 6.8 °F 30.24 in West 4.6 mph 4.6 mph 80% 0.00 in
00:15 11.7 °F 6.7 °F 30.24 in NNW 8.1 mph 8.1 mph 80% 0.00 in
00:24 11.6 °F 6.6 °F 30.24 in NNE 9.0 mph 9.0 mph 80% 0.00 in
00:29 11.6 °F 6.3 °F 30.24 in NNE 8.1 mph 8.1 mph 79% 0.00 in
00:35 11.5 °F 6.2 °F 30.24 in WNW 9.2 mph 9.2 mph 79% 0.00 in
00:42 11.5 °F 6.2 °F 30.24 in North 11.5 mph 11.5 mph 79% 0.00 in
00:50 11.5 °F 6.2 °F 30.24 in Calm   1.8 mph 79% 0.00 in
01:00 11.3 °F 6.3 °F 30.24 in NNW 3.5 mph 3.5 mph 80% 0.00 in
01:02 11.3 °F 6.3 °F 30.24 in North 5.8 mph 5.8 mph 80% 0.00 in
01:07 11.2 °F 6.2 °F 30.24 in SW 9.2 mph 9.2 mph 80% 0.00 in
01:20 11.1 °F 6.1 °F 30.25 in NNE 5.8 mph 5.8 mph 80% 0.00 in
01:25 11.0 °F 6.0 °F 30.25 in NW 9.2 mph 9.2 mph 80% 0.00 in
01:31 11.0 °F 6.0 °F 30.24 in West 8.1 mph 8.1 mph 80% 0.00 in
01:41 10.8 °F 5.6 °F 30.24 in NNW 8.1 mph 8.1 mph 79% 0.00 in
01:57 10.6 °F 5.6 °F 30.25 in North 4.6 mph 4.6 mph 80% 0.00 in
02:02 10.5 °F 5.5 °F 30.25 in NNW 8.1 mph 8.1 mph 80% 0.00 in
02:08 10.5 °F 5.3 °F 30.25 in North 6.9 mph 6.9 mph 79% 0.00 in
02:21 10.3 °F 5.1 °F 30.26 in NNW 8.1 mph 8.1 mph 79% 0.00 in
02:26 10.3 °F 5.1 °F 30.27 in North 6.9 mph 6.9 mph 79% 0.00 in
02:37 10.1 °F 5.2 °F 30.27 in North 5.8 mph 5.8 mph 80% 0.00 in
02:46 10.0 °F 4.8 °F 30.28 in NNW 4.6 mph 4.6 mph 79% 0.00 in
02:55 9.9 °F 4.7 °F 30.27 in NNE 8.1 mph 8.1 mph 79% 0.00 in
03:02 9.8 °F 4.6 °F 30.27 in NNE 8.1 mph 8.1 mph 79% 0.00 in
03:07 9.7 °F 4.2 °F 30.27 in NNE 9.2 mph 9.2 mph 78% 0.00 in
03:13 9.7 °F 3.9 °F 30.27 in North 12.7 mph 12.7 mph 77% 0.00 in
03:19 9.6 °F 3.8 °F 30.27 in NNE 6.9 mph 6.9 mph 77% 0.00 in
03:24 9.5 °F 3.7 °F 30.27 in North 5.8 mph 5.8 mph 77% 0.00 in
03:29 9.4 °F 3.9 °F 30.27 in North 5.8 mph 5.8 mph 78% 0.00 in
03:42 9.2 °F 4.3 °F 30.27 in North 4.6 mph 4.6 mph 80% 0.00 in
03:50 9.1 °F 3.6 °F 30.27 in NNE 8.1 mph 8.1 mph 78% 0.00 in
04:04 8.9 °F 3.2 °F 30.28 in NNE 8.1 mph 8.1 mph 77% 0.00 in
04:09 8.9 °F 3.2 °F 30.28 in North 5.8 mph 5.8 mph 77% 0.00 in
04:16 8.7 °F 2.7 °F 30.27 in North 13.8 mph 13.8 mph 76% 0.00 in
04:23 8.7 °F 2.4 °F 30.27 in North 11.5 mph 11.5 mph 75% 0.00 in
04:30 8.6 °F 2.3 °F 30.28 in North 11.5 mph 11.5 mph 75% 0.00 in
04:36 8.5 °F 2.5 °F 30.28 in North 5.8 mph 5.8 mph 76% 0.00 in
04:41 8.5 °F 2.8 °F 30.28 in NNE 5.0 mph 5.0 mph 77% 0.00 in
04:46 8.3 °F 2.9 °F 30.28 in NNW 5.8 mph 5.8 mph 78% 0.00 in
04:54 8.2 °F 2.5 °F 30.28 in North 12.0 mph 12.0 mph 77% 0.00 in
05:03 8.1 °F 2.4 °F 30.28 in NW 2.3 mph 2.3 mph 77% 0.00 in
05:18 7.7 °F 2.0 °F 30.28 in WNW 9.2 mph 9.2 mph 77% 0.00 in
05:23 7.7 °F 2.0 °F 30.29 in NNE 3.5 mph 3.5 mph 77% 0.00 in
05:31 7.6 °F 2.2 °F 30.29 in North 11.5 mph 11.5 mph 78% 0.00 in
05:44 7.3 °F 1.9 °F 30.30 in WSW 5.8 mph 5.8 mph 78% 0.00 in
05:49 7.3 °F 1.9 °F 30.31 in NE 4.6 mph 4.6 mph 78% 0.00 in
05:58 7.2 °F 1.8 °F 30.31 in North 3.5 mph 3.5 mph 78% 0.00 in
06:06 7.0 °F 1.6 °F 30.32 in NNW 5.8 mph 5.8 mph 78% 0.00 in
06:11 6.9 °F 1.5 °F 30.32 in South 5.8 mph 5.8 mph 78% 0.00 in
06:18 6.9 °F 1.5 °F 30.32 in NNW 5.0 mph 5.0 mph 78% 0.00 in
06:36 6.7 °F 1.3 °F 30.32 in NW 4.6 mph 4.6 mph 78% 0.00 in
06:41 6.6 °F 1.2 °F 30.32 in NNW 3.5 mph 3.5 mph 78% 0.00 in
06:46 6.5 °F 1.4 °F 30.33 in WNW 4.6 mph 4.6 mph 79% 0.00 in
06:56 6.4 °F 1.0 °F 30.32 in North 4.6 mph 4.6 mph 78% 0.00 in
07:14 6.3 °F 0.9 °F 30.33 in North 4.6 mph 4.6 mph 78% 0.00 in
07:19 6.2 °F 0.8 °F 30.33 in North 3.5 mph 3.5 mph 78% 0.00 in
07:24 6.2 °F 0.8 °F 30.33 in North 5.8 mph 5.8 mph 78% 0.00 in
07:32 6.1 °F 1.0 °F 30.34 in NNW 5.8 mph 5.8 mph 79% 0.00 in
07:40 6.1 °F 1.0 °F 30.33 in WNW 3.5 mph 3.5 mph 79% 0.00 in
07:47 6.0 °F 0.9 °F 30.34 in NNW 8.1 mph 8.1 mph 79% 0.00 in
07:52 6.1 °F 1.0 °F 30.34 in North 5.8 mph 5.8 mph 79% 0.00 in
08:04 6.3 °F 1.2 °F 30.35 in North 3.5 mph 3.5 mph 79% 0.00 in
08:10 6.6 °F 1.7 °F 30.35 in NNW 2.3 mph 2.3 mph 80% 0.00 in
08:15 6.7 °F 1.6 °F 30.35 in North 3.5 mph 3.5 mph 79% 0.00 in
08:22 6.9 °F 1.8 °F 30.36 in North 9.2 mph 9.2 mph 79% 0.00 in
08:31 7.3 °F 1.9 °F 30.36 in South 2.0 mph 2.0 mph 78% 0.00 in
08:41 7.7 °F 2.3 °F 30.37 in North 4.6 mph 4.6 mph 78% 0.00 in
08:48 7.7 °F 2.0 °F 30.37 in North 3.5 mph 3.5 mph 77% 0.00 in
09:07 8.4 °F 2.4 °F 30.38 in SW 9.2 mph 9.2 mph 76% 0.00 in
09:21 8.5 °F 2.5 °F 30.39 in NNE 6.9 mph 6.9 mph 76% 0.00 in
09:29 8.4 °F 2.1 °F 30.40 in North 4.6 mph 4.6 mph 75% 0.00 in
09:34 8.7 °F 2.7 °F 30.40 in North 4.6 mph 4.6 mph 76% 0.00 in
09:43 8.6 °F 2.3 °F 30.41 in NNW 8.1 mph 8.1 mph 75% 0.00 in
09:51 8.7 °F 2.4 °F 30.41 in NNW 8.1 mph 8.1 mph 75% 0.00 in
09:57 8.8 °F 2.5 °F 30.41 in North 2.3 mph 3.0 mph 75% 0.00 in
10:05 9.5 °F 3.2 °F 30.41 in North 3.5 mph 3.8 mph 75% 0.00 in
10:10 9.9 °F 3.6 °F 30.42 in North 4.6 mph 4.7 mph 75% 0.00 in
10:19 9.8 °F 3.5 °F 30.42 in NNW 3.5 mph 3.5 mph 75% 0.00 in
10:25 10.2 °F 3.6 °F 30.42 in NNW 8.1 mph 8.1 mph 74% 0.00 in
10:37 10.6 °F 4.2 °F 30.42 in NNW 8.1 mph 8.1 mph 75% 0.00 in
10:53 11.6 °F 4.6 °F 30.42 in NNE 4.0 mph 4.0 mph 73% 0.00 in
10:58 11.9 °F 5.2 °F 30.42 in North 8.0 mph 8.0 mph 74% 0.00 in
11:07 12.0 °F 4.7 °F 30.42 in North 8.1 mph 8.1 mph 72% 0.00 in
11:13 12.0 °F 4.7 °F 30.41 in NNW 10.4 mph 10.4 mph 72% 0.00 in
11:18 12.3 °F 5.0 °F 30.42 in NNW 9.2 mph 9.2 mph 72% 0.00 in
11:26 12.8 °F 5.2 °F 30.41 in WNW 4.6 mph 4.6 mph 71% 0.00 in
11:31 13.2 °F 5.6 °F 30.41 in North 3.5 mph 3.5 mph 71% 0.00 in
11:37 13.6 °F 6.5 °F 30.41 in North 3.5 mph 3.5 mph 73% 0.00 in
11:42 14.0 °F 6.3 °F 30.41 in NNE 6.9 mph 6.9 mph 71% 0.00 in
11:53 14.3 °F 6.0 °F 30.41 in NNE 6.9 mph 6.9 mph 69% 0.00 in
11:58 14.8 °F 7.7 °F 30.41 in North 4.6 mph 4.6 mph 73% 0.00 in
12:05 15.5 °F 7.5 °F 30.41 in WNW 3.5 mph 3.5 mph 70% 0.00 in
12:17 16.2 °F 8.1 °F 30.41 in North 6.9 mph 6.9 mph 70% 0.00 in
12:24 16.7 °F 8.3 °F 30.41 in NNW 8.1 mph 8.1 mph 69% 0.00 in
12:30 16.5 °F 8.1 °F 30.41 in WNW 6.0 mph 6.0 mph 69% 0.00 in
12:36 16.5 °F 7.1 °F 30.41 in NNE 9.2 mph 9.2 mph 66% 0.00 in
12:49 16.9 °F 7.2 °F 30.40 in NNW 9.2 mph 9.2 mph 65% 0.00 in
12:54 17.0 °F 7.6 °F 30.40 in North 9.2 mph 9.2 mph 66% 0.00 in
13:03 17.3 °F 8.2 °F 30.40 in NNE 11.5 mph 11.5 mph 67% 0.00 in
13:08 17.1 °F 8.0 °F 30.40 in North 5.0 mph 5.0 mph 67% 0.00 in
13:13 17.1 °F 8.0 °F 30.40 in NNE 8.1 mph 8.1 mph 67% 0.00 in
13:19 17.7 °F 8.9 °F 30.40 in North 4.6 mph 4.6 mph 68% 0.00 in
13:26 17.9 °F 9.1 °F 30.40 in NNE 8.1 mph 8.1 mph 68% 0.00 in
13:35 18.5 °F 9.0 °F 30.40 in WNW 5.8 mph 5.8 mph 66% 0.00 in
13:43 18.2 °F 8.4 °F 30.40 in NNW 9.2 mph 9.2 mph 65% 0.00 in
13:49 18.4 °F 8.6 °F 30.41 in NNW 6.9 mph 6.9 mph 65% 0.00 in
13:55 18.9 °F 9.1 °F 30.41 in North 10.4 mph 10.4 mph 65% 0.00 in
14:04 18.9 °F 9.1 °F 30.41 in North 8.1 mph 8.1 mph 65% 0.00 in
14:24 18.6 °F 8.1 °F 30.42 in NNW 9.2 mph 9.2 mph 63% 0.00 in
14:30 19.3 °F 9.4 °F 30.42 in North 6.0 mph 6.0 mph 65% 0.00 in
14:40 19.1 °F 8.9 °F 30.43 in NNE 5.8 mph 5.8 mph 64% 0.00 in
14:46 18.7 °F 8.5 °F 30.43 in North 8.1 mph 8.1 mph 64% 0.00 in
14:51 18.8 °F 8.6 °F 30.43 in West 11.5 mph 11.5 mph 64% 0.00 in
14:59 18.7 °F 8.9 °F 30.44 in NNW 5.8 mph 5.8 mph 65% 0.00 in
15:07 18.0 °F 7.9 °F 30.44 in North 9.2 mph 9.2 mph 64% 0.00 in
15:18 17.8 °F 8.4 °F 30.44 in North 6.9 mph 6.9 mph 66% 0.00 in
15:23 17.6 °F 8.2 °F 30.45 in West 8.1 mph 8.1 mph 66% 0.00 in
15:29 17.5 °F 8.4 °F 30.45 in North 7.0 mph 7.0 mph 67% 0.00 in
15:36 17.6 °F 8.2 °F 30.46 in WSW 10.4 mph 10.4 mph 66% 0.00 in
15:42 17.6 °F 8.2 °F 30.46 in NNW 4.0 mph 4.0 mph 66% 0.00 in
15:52 17.3 °F 7.9 °F 30.46 in NNW 5.8 mph 5.8 mph 66% 0.00 in
16:02 17.0 °F 7.6 °F 30.47 in North 9.2 mph 9.2 mph 66% 0.00 in
16:07 16.9 °F 7.8 °F 30.47 in NNW 8.1 mph 8.1 mph 67% 0.00 in
16:22 16.6 °F 7.9 °F 30.48 in East 8.1 mph 8.1 mph 68% 0.00 in
16:41 16.2 °F 7.8 °F 30.48 in NNE 4.6 mph 4.6 mph 69% 0.00 in
16:46 16.0 °F 7.3 °F 30.48 in NNW 5.8 mph 5.8 mph 68% 0.00 in
16:51 15.8 °F 7.1 °F 30.49 in NNW 9.2 mph 9.2 mph 68% 0.00 in
16:58 15.5 °F 6.5 °F 30.49 in NNE 3.5 mph 3.5 mph 67% 0.00 in
17:12 15.3 °F 6.3 °F 30.49 in South 4.6 mph 4.6 mph 67% 0.00 in
17:17 15.2 °F 5.9 °F 30.50 in NNE 4.0 mph 4.0 mph 66% 0.00 in
17:25 15.2 °F 5.5 °F 30.50 in NNW 5.8 mph 5.8 mph 65% 0.00 in
17:30 15.0 °F 5.0 °F 30.50 in NNE 8.1 mph 8.1 mph 64% 0.00 in
17:38 14.9 °F 5.6 °F 30.51 in North 3.5 mph 3.5 mph 66% 0.00 in
17:43 14.8 °F 4.8 °F 30.51 in NNW 10.4 mph 10.4 mph 64% 0.00 in
17:50 14.6 °F 5.0 °F 30.51 in NNW 11.5 mph 11.5 mph 65% 0.00 in
18:04 14.6 °F 5.3 °F 30.52 in North 6.9 mph 6.9 mph 66% 0.00 in
18:09 14.6 °F 5.6 °F 30.52 in WSW 5.0 mph 5.0 mph 67% 0.00 in
18:18 14.5 °F 5.5 °F 30.53 in West 6.0 mph 6.0 mph 67% 0.00 in
18:25 14.4 °F 5.1 °F 30.53 in NNE 12.7 mph 12.7 mph 66% 0.00 in
18:36 14.2 °F 5.2 °F 30.54 in NNE 9.2 mph 9.2 mph 67% 0.00 in
18:44 14.1 °F 5.5 °F 30.54 in NNW 3.5 mph 3.6 mph 68% 0.00 in
18:58 13.9 °F 4.3 °F 30.54 in NNW 10.4 mph 10.4 mph 65% 0.00 in
19:06 13.9 °F 4.3 °F 30.54 in NNE 5.8 mph 5.8 mph 65% 0.00 in
19:19 13.9 °F 3.6 °F 30.54 in North 5.8 mph 5.8 mph 63% 0.00 in
19:24 13.9 °F 3.3 °F 30.54 in NNW 8.0 mph 8.0 mph 62% 0.00 in
19:32 13.8 °F 2.5 °F 30.54 in North 10.4 mph 10.4 mph 60% 0.00 in
19:43 13.7 °F 2.7 °F 30.55 in North 8.1 mph 8.1 mph 61% 0.00 in
19:48 13.7 °F 3.1 °F 30.55 in North 8.0 mph 8.0 mph 62% 0.00 in
19:55 13.7 °F 3.1 °F 30.56 in NNW 11.5 mph 11.5 mph 62% 0.00 in
20:06 13.6 °F 3.0 °F 30.55 in NNW 9.2 mph 9.2 mph 62% 0.00 in
20:12 13.6 °F 3.3 °F 30.56 in West 3.5 mph 3.5 mph 63% 0.00 in
20:31 13.1 °F 3.2 °F 30.56 in NNE 8.1 mph 8.1 mph 64% 0.00 in
20:40 13.1 °F 2.9 °F 30.56 in WNW 6.9 mph 6.9 mph 63% 0.00 in
20:45 13.1 °F 2.9 °F 30.56 in NNE 10.4 mph 10.4 mph 63% 0.00 in
20:50 13.0 °F 2.8 °F 30.57 in North 9.2 mph 9.2 mph 63% 0.00 in
20:57 13.0 °F 2.8 °F 30.57 in North 3.5 mph 3.7 mph 63% 0.00 in
21:07 13.1 °F 2.9 °F 30.57 in North 3.5 mph 5.5 mph 63% 0.00 in
21:17 13.1 °F 2.5 °F 30.57 in North 8.1 mph 8.1 mph 62% 0.00 in
21:33 13.2 °F 2.9 °F 30.58 in NNW 9.2 mph 9.2 mph 63% 0.00 in
21:41 13.2 °F 2.9 °F 30.58 in NNW 9.2 mph 9.2 mph 63% 0.00 in
21:47 13.3 °F 3.0 °F 30.58 in NNW 4.6 mph 4.6 mph 63% 0.00 in
21:53 13.4 °F 3.5 °F 30.58 in NNE 4.0 mph 4.0 mph 64% 0.00 in
21:59 13.3 °F 3.0 °F 30.58 in NW 8.1 mph 8.1 mph 63% 0.00 in
22:05 13.4 °F 3.5 °F 30.59 in North 3.5 mph 3.5 mph 64% 0.00 in
22:11 13.4 °F 3.5 °F 30.59 in NNE 10.4 mph 10.4 mph 64% 0.00 in
22:36 13.7 °F 3.4 °F 30.59 in North 9.2 mph 9.2 mph 63% 0.00 in
22:53 13.8 °F 3.2 °F 30.60 in North 9.2 mph 9.2 mph 62% 0.00 in
22:59 13.8 °F 3.2 °F 30.60 in North 12.7 mph 12.7 mph 62% 0.00 in
23:07 13.8 °F 2.8 °F 30.60 in NNE 4.6 mph 4.6 mph 61% 0.00 in
23:14 13.8 °F 3.2 °F 30.60 in North 9.2 mph 9.2 mph 62% 0.00 in
23:20 13.8 °F 2.8 °F 30.60 in NW 9.2 mph 9.2 mph 61% 0.00 in
23:29 13.8 °F 3.2 °F 30.60 in North 5.8 mph 5.8 mph 62% 0.00 in
23:39 13.9 °F 3.3 °F 30.61 in NNW 9.2 mph 9.2 mph 62% 0.00 in
23:44 13.9 °F 3.3 °F 30.61 in North 8.1 mph 8.1 mph 62% 0.00 in
23:57 13.7 °F 2.7 °F 30.60 in North 12.7 mph 12.7 mph 61% 0.00 in
Live Lenexa Weather
Compliments of Weather Underground - 1.5 mb